OCN155 VRMM-EDDF
Flight info
| Callsign | OCN155 |
|---|---|
| Flight time | N/A |
| Altitude | 36000 |
| Route | MUNUT1A MUNUT R329 POMAN P570 OTABI/N0484F370 A474 BBB G208 APANO/N0485F380 G208 KE B210 NH/N0486F370 G326 REKOR/N0479F390 G326 ZB/N0489F380 L750 RANAH A846 ABDAN/N0483F400 A909 RODAR N644 ADEKI DCT BADIR DCT LAGAS DCT NOLGA UG261 TBN UM11 CRM UL746 ODERO DCT OPT DCT ULMIN DCT DEGET DCT ABETI DCT PEROL DCT SUBEN DCT AKINI T161 DEBHI DEBHI1C |
| Aircraft | A333/H-SDE3GHIJ2J3J5M1RVWXY/LB2D1 |
Departure
| Time | 2026-05-01 09:32 |
|---|---|
| Airport | Velana International Airport (VRMM) |
Arrival
| Time | N/A |
|---|---|
| Airport | Frankfurt Main Airport (EDDF) |
| Time | Latitude | Longitude | Altitude | Speed | Heading |
|---|---|---|---|---|---|
| 2026-05-01 08:59 | 4.18456 | 73.52759 | 20 ft | 0 kts | 270° |
| 2026-05-01 09:24 | 4.18456 | 73.52764 | 20 ft | 4 kts | 270° |
| 2026-05-01 09:24 | 4.18457 | 73.52791 | 22 ft | 4 kts | 270° |
| 2026-05-01 09:24 | 4.18457 | 73.52825 | 24 ft | 4 kts | 259° |
| 2026-05-01 09:25 | 4.18491 | 73.52855 | 23 ft | 4 kts | 180° |
| 2026-05-01 09:25 | 4.18539 | 73.52856 | 24 ft | 1 kts | 181° |
| 2026-05-01 09:28 | 4.18537 | 73.52856 | 24 ft | 2 kts | 181° |
| 2026-05-01 09:28 | 4.18519 | 73.52856 | 23 ft | 6 kts | 181° |
| 2026-05-01 09:28 | 4.18437 | 73.52855 | 22 ft | 10 kts | 180° |
| 2026-05-01 09:28 | 4.18369 | 73.52855 | 20 ft | 10 kts | 180° |
| 2026-05-01 09:29 | 4.18229 | 73.52855 | 20 ft | 10 kts | 180° |
| 2026-05-01 09:29 | 4.18180 | 73.52855 | 20 ft | 10 kts | 180° |
| 2026-05-01 09:30 | 4.18137 | 73.52922 | 19 ft | 6 kts | 38° |
| 2026-05-01 09:30 | 4.18172 | 73.52942 | 19 ft | 6 kts | 39° |
| 2026-05-01 09:30 | 4.18196 | 73.53028 | 17 ft | 7 kts | 83° |
| 2026-05-01 09:31 | 4.18210 | 73.53079 | 17 ft | 8 kts | 60° |
| 2026-05-01 09:31 | 4.18251 | 73.53103 | 17 ft | 6 kts | 11° |
| 2026-05-01 09:31 | 4.18597 | 73.53102 | 20 ft | 72 kts | 360° |
| 2026-05-01 09:32 | 4.19284 | 73.53102 | 21 ft | 125 kts | 0° |
| 2026-05-01 09:32 | 4.21524 | 73.53133 | 677 ft | 171 kts | 359° |
| 2026-05-01 09:32 | 4.22714 | 73.53160 | 1395 ft | 176 kts | 359° |
| 2026-05-01 09:33 | 4.23981 | 73.53168 | 1859 ft | 188 kts | 359° |
| 2026-05-01 09:33 | 4.25340 | 73.53165 | 2213 ft | 203 kts | 357° |
| 2026-05-01 09:33 | 4.28392 | 73.53120 | 2785 ft | 237 kts | 358° |
| 2026-05-01 09:34 | 4.30091 | 73.53110 | 3051 ft | 251 kts | 358° |
| 2026-05-01 09:34 | 4.31877 | 73.53113 | 3315 ft | 264 kts | 358° |
| 2026-05-01 09:34 | 4.35685 | 73.53132 | 4335 ft | 273 kts | 359° |
| 2026-05-01 09:35 | 4.37546 | 73.53155 | 5066 ft | 269 kts | 360° |
| 2026-05-01 09:35 | 4.41271 | 73.53191 | 6406 ft | 267 kts | 360° |
| 2026-05-01 09:35 | 4.43150 | 73.53040 | 6829 ft | 277 kts | 349° |
| 2026-05-01 09:36 | 4.45072 | 73.52635 | 7219 ft | 287 kts | 348° |
| 2026-05-01 09:36 | 4.47049 | 73.52212 | 7701 ft | 293 kts | 348° |
| 2026-05-01 09:36 | 4.49025 | 73.51787 | 8487 ft | 287 kts | 349° |
| 2026-05-01 09:36 | 4.50961 | 73.51372 | 9286 ft | 282 kts | 349° |
| 2026-05-01 09:37 | 4.52911 | 73.50957 | 9788 ft | 290 kts | 349° |
| 2026-05-01 09:37 | 4.57015 | 73.50088 | 10411 ft | 316 kts | 349° |
| 2026-05-01 09:37 | 4.59216 | 73.49634 | 10660 ft | 330 kts | 350° |
| 2026-05-01 09:38 | 4.63876 | 73.48776 | 11164 ft | 355 kts | 351° |
| 2026-05-01 09:38 | 4.66374 | 73.48315 | 11438 ft | 366 kts | 351° |
| 2026-05-01 09:38 | 4.68914 | 73.47837 | 11729 ft | 376 kts | 350° |
| 2026-05-01 09:39 | 4.74178 | 73.46819 | 12303 ft | 393 kts | 350° |
| 2026-05-01 09:39 | 4.76851 | 73.46286 | 12598 ft | 401 kts | 350° |
| 2026-05-01 09:39 | 4.79614 | 73.45724 | 12904 ft | 407 kts | 349° |
| 2026-05-01 09:40 | 4.82406 | 73.45145 | 13210 ft | 413 kts | 349° |
| 2026-05-01 09:40 | 4.88107 | 73.43923 | 13819 ft | 424 kts | 348° |
| 2026-05-01 09:40 | 4.90993 | 73.43334 | 14351 ft | 419 kts | 351° |
| 2026-05-01 09:41 | 4.93832 | 73.42828 | 15031 ft | 413 kts | 351° |
| 2026-05-01 09:41 | 4.99507 | 73.41786 | 15884 ft | 416 kts | 350° |
| 2026-05-01 09:41 | 5.02364 | 73.41260 | 16283 ft | 418 kts | 352° |
| 2026-05-01 09:42 | 5.05246 | 73.40831 | 16674 ft | 420 kts | 353° |
| 2026-05-01 09:42 | 5.08144 | 73.40429 | 17040 ft | 422 kts | 353° |
| 2026-05-01 09:42 | 5.13999 | 73.39615 | 17774 ft | 426 kts | 353° |
| 2026-05-01 09:43 | 5.19907 | 73.38786 | 18429 ft | 431 kts | 353° |
| 2026-05-01 09:43 | 5.22852 | 73.38370 | 18718 ft | 433 kts | 353° |
| 2026-05-01 09:43 | 5.25849 | 73.37948 | 19012 ft | 435 kts | 353° |
| 2026-05-01 09:44 | 5.31881 | 73.37096 | 19595 ft | 439 kts | 353° |
| 2026-05-01 09:44 | 5.34922 | 73.36666 | 19876 ft | 442 kts | 353° |
| 2026-05-01 09:44 | 5.37972 | 73.36235 | 20153 ft | 444 kts | 353° |
| 2026-05-01 09:45 | 5.41037 | 73.35802 | 20433 ft | 446 kts | 353° |
| 2026-05-01 09:45 | 5.47204 | 73.34931 | 20977 ft | 450 kts | 353° |
| 2026-05-01 09:45 | 5.50313 | 73.34491 | 21250 ft | 452 kts | 353° |
| 2026-05-01 09:46 | 5.53423 | 73.34004 | 21519 ft | 454 kts | 351° |
| 2026-05-01 09:46 | 5.56534 | 73.33411 | 21792 ft | 456 kts | 348° |
| 2026-05-01 09:46 | 5.59642 | 73.32735 | 22066 ft | 458 kts | 347° |
| 2026-05-01 09:46 | 5.62755 | 73.32014 | 22334 ft | 460 kts | 347° |
| 2026-05-01 09:47 | 5.65884 | 73.31292 | 22600 ft | 462 kts | 347° |
| 2026-05-01 09:47 | 5.69032 | 73.30585 | 22864 ft | 464 kts | 347° |
| 2026-05-01 09:47 | 5.72198 | 73.29897 | 23126 ft | 466 kts | 348° |
| 2026-05-01 09:47 | 5.75375 | 73.29222 | 23379 ft | 468 kts | 348° |
| 2026-05-01 09:48 | 5.78574 | 73.28553 | 23592 ft | 470 kts | 348° |
| 2026-05-01 09:48 | 5.81784 | 73.27887 | 23810 ft | 472 kts | 348° |
| 2026-05-01 09:48 | 5.85005 | 73.27221 | 24041 ft | 473 kts | 348° |
| 2026-05-01 09:48 | 5.88240 | 73.26552 | 24269 ft | 475 kts | 348° |
| 2026-05-01 09:49 | 5.91441 | 73.25889 | 24496 ft | 476 kts | 348° |
| 2026-05-01 09:49 | 5.94733 | 73.25206 | 24737 ft | 477 kts | 348° |
| 2026-05-01 09:49 | 5.97953 | 73.24537 | 24962 ft | 479 kts | 348° |
| 2026-05-01 09:49 | 6.01218 | 73.23858 | 25177 ft | 480 kts | 348° |
| 2026-05-01 09:50 | 6.04495 | 73.23176 | 25409 ft | 482 kts | 348° |
| 2026-05-01 09:50 | 6.07787 | 73.22491 | 25626 ft | 483 kts | 347° |
| 2026-05-01 09:50 | 6.11072 | 73.21776 | 25829 ft | 485 kts | 346° |
| 2026-05-01 09:50 | 6.14365 | 73.21039 | 26043 ft | 486 kts | 345° |
| 2026-05-01 09:51 | 6.17649 | 73.20307 | 26658 ft | 473 kts | 345° |
| 2026-05-01 09:51 | 6.20823 | 73.19605 | 27366 ft | 463 kts | 343° |
| 2026-05-01 09:51 | 6.23971 | 73.18855 | 27531 ft | 466 kts | 343° |
| 2026-05-01 09:51 | 6.27138 | 73.18105 | 27585 ft | 471 kts | 344° |
| 2026-05-01 09:52 | 6.30353 | 73.17371 | 27621 ft | 475 kts | 345° |
| 2026-05-01 09:52 | 6.33601 | 73.16660 | 27668 ft | 480 kts | 345° |
| 2026-05-01 09:52 | 6.36846 | 73.15973 | 27717 ft | 484 kts | 345° |
| 2026-05-01 09:52 | 6.40162 | 73.15286 | 27767 ft | 488 kts | 346° |
| 2026-05-01 09:53 | 6.43500 | 73.14602 | 27816 ft | 492 kts | 346° |
| 2026-05-01 09:53 | 6.46872 | 73.13913 | 27873 ft | 496 kts | 346° |
| 2026-05-01 09:54 | 6.56992 | 73.11839 | 28239 ft | 502 kts | 346° |
| 2026-05-01 09:54 | 6.60418 | 73.11130 | 28410 ft | 503 kts | 346° |
| 2026-05-01 09:54 | 6.63849 | 73.10416 | 28554 ft | 504 kts | 346° |
| 2026-05-01 09:54 | 6.67285 | 73.09699 | 28731 ft | 504 kts | 346° |
| 2026-05-01 09:55 | 6.70720 | 73.08983 | 28977 ft | 503 kts | 345° |
| 2026-05-01 09:55 | 6.74142 | 73.08266 | 29201 ft | 502 kts | 345° |
| 2026-05-01 09:55 | 6.77566 | 73.07546 | 29406 ft | 502 kts | 345° |
| 2026-05-01 09:55 | 6.80986 | 73.06827 | 29689 ft | 501 kts | 345° |
| 2026-05-01 09:56 | 6.84401 | 73.06107 | 29938 ft | 501 kts | 345° |
| 2026-05-01 09:56 | 6.87803 | 73.05390 | 30104 ft | 500 kts | 345° |
| 2026-05-01 09:56 | 6.91208 | 73.04675 | 30256 ft | 500 kts | 345° |
| 2026-05-01 09:56 | 6.94667 | 73.03949 | 30409 ft | 500 kts | 345° |
| 2026-05-01 09:57 | 6.98033 | 73.03243 | 30513 ft | 501 kts | 345° |
| 2026-05-01 09:57 | 7.01445 | 73.02528 | 30671 ft | 501 kts | 345° |
| 2026-05-01 09:57 | 7.04853 | 73.01814 | 30854 ft | 500 kts | 345° |
| 2026-05-01 09:57 | 7.08221 | 73.01108 | 31012 ft | 500 kts | 345° |
| 2026-05-01 09:58 | 7.11630 | 73.00393 | 31147 ft | 500 kts | 345° |
| 2026-05-01 09:58 | 7.15033 | 72.99680 | 31316 ft | 499 kts | 345° |
| 2026-05-01 09:58 | 7.18433 | 72.98966 | 31474 ft | 499 kts | 345° |
| 2026-05-01 09:58 | 7.21830 | 72.98253 | 31616 ft | 499 kts | 345° |
| 2026-05-01 09:59 | 7.25227 | 72.97542 | 31773 ft | 498 kts | 345° |
| 2026-05-01 09:59 | 7.28626 | 72.96830 | 31933 ft | 498 kts | 344° |
| 2026-05-01 09:59 | 7.35452 | 72.95561 | 32136 ft | 499 kts | 347° |
| 2026-05-01 10:00 | 7.38842 | 72.95043 | 32314 ft | 498 kts | 348° |
| 2026-05-01 10:00 | 7.42276 | 72.94603 | 32480 ft | 497 kts | 349° |
| 2026-05-01 10:00 | 7.45717 | 72.94229 | 32639 ft | 496 kts | 351° |
| 2026-05-01 10:00 | 7.49156 | 72.93899 | 32818 ft | 495 kts | 351° |
| 2026-05-01 10:01 | 7.52579 | 72.93591 | 32953 ft | 495 kts | 351° |
| 2026-05-01 10:01 | 7.56009 | 72.93291 | 33077 ft | 495 kts | 351° |
| 2026-05-01 10:01 | 7.59433 | 72.92993 | 33238 ft | 494 kts | 351° |
| 2026-05-01 10:01 | 7.62859 | 72.92691 | 33360 ft | 494 kts | 351° |
| 2026-05-01 10:02 | 7.66284 | 72.92386 | 33482 ft | 494 kts | 351° |
| 2026-05-01 10:02 | 7.69704 | 72.92079 | 33618 ft | 493 kts | 351° |
| 2026-05-01 10:02 | 7.73124 | 72.91772 | 33751 ft | 493 kts | 351° |
| 2026-05-01 10:02 | 7.76543 | 72.91465 | 33858 ft | 493 kts | 351° |
| 2026-05-01 10:03 | 7.79937 | 72.91164 | 34261 ft | 483 kts | 351° |
| 2026-05-01 10:03 | 7.83193 | 72.90884 | 34902 ft | 469 kts | 351° |
| 2026-05-01 10:03 | 7.86418 | 72.90611 | 35355 ft | 461 kts | 351° |
| 2026-05-01 10:03 | 7.89595 | 72.90345 | 35613 ft | 457 kts | 351° |
| 2026-05-01 10:04 | 7.92765 | 72.90077 | 35729 ft | 457 kts | 351° |
| 2026-05-01 10:04 | 7.95932 | 72.89805 | 35747 ft | 458 kts | 351° |
| 2026-05-01 10:04 | 8.02327 | 72.89235 | 35773 ft | 462 kts | 351° |
| 2026-05-01 10:05 | 8.08762 | 72.88648 | 35787 ft | 467 kts | 351° |
| 2026-05-01 10:05 | 8.15224 | 72.88054 | 35798 ft | 471 kts | 351° |
| 2026-05-01 10:06 | 8.21789 | 72.87451 | 35808 ft | 475 kts | 351° |
| 2026-05-01 10:06 | 8.28407 | 72.86844 | 35816 ft | 479 kts | 351° |
| 2026-05-01 10:07 | 8.35089 | 72.86231 | 35783 ft | 484 kts | 351° |
| 2026-05-01 10:07 | 8.41830 | 72.85613 | 35818 ft | 487 kts | 351° |
| 2026-05-01 10:08 | 8.51976 | 72.84688 | 35867 ft | 488 kts | 351° |
| 2026-05-01 10:09 | 8.58736 | 72.84077 | 35867 ft | 488 kts | 351° |
| 2026-05-01 10:09 | 8.65496 | 72.83466 | 35868 ft | 488 kts | 351° |
| 2026-05-01 10:10 | 8.72219 | 72.82858 | 35865 ft | 488 kts | 351° |
| 2026-05-01 10:10 | 8.82373 | 72.81939 | 35865 ft | 488 kts | 351° |
| 2026-05-01 10:11 | 8.89143 | 72.81325 | 35867 ft | 488 kts | 351° |
| 2026-05-01 10:11 | 8.95913 | 72.80711 | 35866 ft | 488 kts | 351° |
| 2026-05-01 10:12 | 9.01538 | 72.80201 | 35865 ft | 488 kts | 351° |
| 2026-05-01 10:13 | 9.12794 | 72.79180 | 35864 ft | 488 kts | 351° |
| 2026-05-01 10:13 | 9.19577 | 72.78564 | 35865 ft | 489 kts | 351° |
| 2026-05-01 10:14 | 9.29740 | 72.77641 | 35865 ft | 488 kts | 351° |
| 2026-05-01 10:15 | 9.43047 | 72.76432 | 35864 ft | 488 kts | 351° |
| 2026-05-01 10:15 | 9.49815 | 72.75816 | 35865 ft | 488 kts | 351° |
| 2026-05-01 10:16 | 9.56584 | 72.75200 | 35864 ft | 488 kts | 351° |
| 2026-05-01 10:17 | 9.66692 | 72.74280 | 35864 ft | 488 kts | 351° |
| 2026-05-01 10:17 | 9.76846 | 72.73355 | 35863 ft | 488 kts | 351° |
| 2026-05-01 10:18 | 9.86992 | 72.72431 | 35864 ft | 488 kts | 351° |